| time (UTC) | temp F | wind direction | speed knots | gust knots | rain 1hr in | rain 24hr in | rain mn in | humidity % | barometer mb |
| 20260508140049 | 53 | 224 | 0.0 | 4.3 | 0.00 | 0.00 | 0.00 | 43 | 1009.0 |
| 20260508134545 | 52 | 219 | 0.0 | 3.5 | 0.00 | 0.00 | 0.00 | 44 | 1009.1 |
| 20260508133042 | 51 | 215 | 0.0 | 3.5 | 0.00 | 0.00 | 0.00 | 42 | 1009.2 |
| 20260508131541 | 50 | 212 | 0.0 | 2.6 | 0.00 | 0.00 | 0.00 | 47 | 1009.3 |
| 20260508130034 | 48 | 298 | 0.0 | 0.0 | 0.00 | 0.00 | 0.00 | 52 | 1009.2 |
| 20260508124530 | 47 | 300 | 0.0 | 0.0 | 0.00 | 0.00 | 0.00 | 52 | 1009.3 |
| 20260508123029 | 46 | 300 | 0.0 | 0.0 | 0.00 | 0.00 | 0.00 | 54 | 1009.2 |
| 20260508121526 | 44 | 300 | 0.0 | 0.0 | 0.00 | 0.00 | 0.00 | 57 | 1009.0 |
| 20260508120033 | 42 | 300 | 0.0 | 0.0 | 0.00 | 0.00 | 0.00 | 56 | 1009.0 |
| 20260508114524 | 40 | 300 | 0.0 | 0.0 | 0.00 | 0.00 | 0.00 | 58 | 1008.9 |
| 20260508113023 | 41 | 300 | 0.0 | 0.0 | 0.00 | 0.00 | 0.00 | 57 | 1008.9 |
| 20260508111528 | 40 | 300 | 0.0 | 0.0 | 0.00 | 0.00 | 0.00 | 58 | 1008.8 |
| 20260508110022 | 41 | 300 | 0.0 | 0.0 | 0.00 | 0.00 | 0.00 | 56 | 1008.7 |
| 20260508104521 | 41 | 300 | 0.0 | 0.0 | 0.00 | 0.00 | 0.00 | 54 | 1008.7 |
| 20260508103025 | 40 | 300 | 0.0 | 0.0 | 0.00 | 0.00 | 0.00 | 56 | 1008.7 |
| 20260508101518 | 40 | 300 | 0.0 | 0.0 | 0.00 | 0.00 | 0.00 | 56 | 1008.9 |
| 20260508100017 | 40 | 300 | 0.0 | 0.0 | 0.00 | 0.00 | 0.00 | 56 | 1009.0 |
| 20260508094516 | 41 | 300 | 0.0 | 0.0 | 0.00 | 0.00 | 0.00 | 56 | 1009.1 |
| 20260508093015 | 40 | 300 | 0.0 | 0.0 | 0.00 | 0.00 | 0.00 | 57 | 1009.1 |
| 20260508091514 | 40 | 300 | 0.0 | 0.0 | 0.00 | 0.00 | 0.00 | 55 | 1009.0 |
| 20260508090012 | 41 | 300 | 0.0 | 0.0 | 0.00 | 0.00 | 0.00 | 53 | 1009.1 |
| 20260508084509 | 41 | 300 | 0.0 | 0.0 | 0.00 | 0.00 | 0.00 | 54 | 1009.2 |
| 20260508083007 | 41 | 300 | 0.0 | 0.0 | 0.00 | 0.00 | 0.00 | 53 | 1009.3 |
| 20260508081504 | 42 | 300 | 0.0 | 0.0 | 0.00 | 0.00 | 0.00 | 51 | 1009.5 |
| 20260508080004 | 43 | 300 | 0.0 | 0.0 | 0.00 | 0.00 | 0.00 | 50 | 1009.5 |
| 20260508074605 | 44 | 300 | 0.0 | 0.0 | 0.00 | 0.00 | 0.00 | 48 | 1009.6 |
| 20260508073058 | 44 | 300 | 0.0 | 0.0 | 0.00 | 0.00 | 0.00 | 48 | 1009.7 |
| 20260508071557 | 44 | 300 | 0.0 | 0.0 | 0.00 | 0.00 | 0.00 | 47 | 1009.8 |
| 20260508070056 | 45 | 300 | 0.0 | 0.0 | 0.00 | 0.00 | 0.00 | 47 | 1009.8 |
| 20260508064555 | 45 | 300 | 0.0 | 0.0 | 0.00 | 0.00 | 0.00 | 48 | 1009.9 |
| 20260508063059 | 45 | 300 | 0.0 | 0.0 | 0.00 | 0.00 | 0.00 | 49 | 1009.9 |
| 20260508061556 | 44 | 300 | 0.0 | 0.0 | 0.00 | 0.00 | 0.00 | 50 | 1010.0 |
| 20260508060051 | 44 | 300 | 0.0 | 0.0 | 0.00 | 0.00 | 0.00 | 51 | 1010.1 |
| 20260508054549 | 44 | 300 | 0.0 | 0.0 | 0.00 | 0.00 | 0.00 | 56 | 1010.1 |
| 20260508053056 | 44 | 300 | 0.0 | 0.0 | 0.00 | 0.00 | 0.00 | 55 | 1010.0 |
| 20260508051548 | 45 | 300 | 0.0 | 0.0 | 0.00 | 0.00 | 0.00 | 51 | 1010.0 |
| 20260508050042 | 46 | 300 | 0.0 | 0.0 | 0.00 | 0.00 | 0.00 | 52 | 1010.0 |
| 20260508044542 | 48 | 300 | 0.0 | 0.0 | 0.00 | 0.00 | 0.00 | 47 | 1009.9 |
| 20260508043049 | 47 | 300 | 0.0 | 0.0 | 0.00 | 0.00 | 0.00 | 44 | 1010.0 |
| 20260508041542 | 48 | 300 | 0.0 | 0.0 | 0.00 | 0.00 | 0.00 | 46 | 1010.0 |
| 20260508040040 | 48 | 300 | 0.0 | 0.0 | 0.00 | 0.00 | 0.00 | 48 | 1010.0 |
| 20260508034547 | 48 | 300 | 0.0 | 0.0 | 0.00 | 0.00 | 0.00 | 49 | 1010.1 |
| 20260508033039 | 49 | 300 | 0.0 | 0.0 | 0.00 | 0.00 | 0.00 | 49 | 1010.0 |
| 20260508031539 | 49 | 300 | 0.0 | 0.0 | 0.00 | 0.00 | 0.00 | 49 | 1010.0 |
| 20260508030039 | 50 | 300 | 0.0 | 0.0 | 0.00 | 0.00 | 0.00 | 52 | 1010.1 |
| 20260508024538 | 51 | 300 | 0.0 | 0.0 | 0.00 | 0.00 | 0.00 | 44 | 1010.0 |
| 20260508023037 | 51 | 300 | 0.0 | 0.0 | 0.00 | 0.00 | 0.00 | 49 | 1009.8 |
| 20260508021538 | 52 | 300 | 0.0 | 0.0 | 0.00 | 0.00 | 0.00 | 54 | 1009.7 |
| 20260508020039 | 53 | 300 | 0.0 | 0.0 | 0.00 | 0.00 | 0.00 | 49 | 1009.6 |
| 20260508014536 | 56 | 300 | 0.0 | 0.0 | 0.00 | 0.00 | 0.00 | 47 | 1009.4 |
| 20260508013037 | 57 | 300 | 0.0 | 2.6 | 0.00 | 0.00 | 0.00 | 45 | 1009.4 |
| 20260508011535 | 58 | 300 | 1.7 | 3.5 | 0.00 | 0.00 | 0.00 | 40 | 1009.2 |
| 20260508010034 | 59 | 301 | 1.7 | 5.2 | 0.00 | 0.00 | 0.00 | 41 | 1009.0 |
| 20260508004533 | 59 | 304 | 0.0 | 6.1 | 0.00 | 0.00 | 0.00 | 36 | 1008.9 |
| 20260508003033 | 60 | 285 | 3.5 | 6.1 | 0.00 | 0.00 | 0.00 | 38 | 1008.8 |
| 20260508001533 | 61 | 281 | 3.5 | 9.6 | 0.00 | 0.00 | 0.00 | 37 | 1008.8 |
| 20260508000031 | 62 | 263 | 5.2 | 9.6 | 0.00 | 0.00 | 0.00 | 35 | 1008.9 |
| 20260507234539 | 62 | 269 | 6.1 | 9.6 | 0.00 | 0.00 | 0.00 | 35 | 1009.0 |
| 20260507233030 | 62 | 303 | 4.3 | 10.4 | 0.00 | 0.00 | 0.00 | 31 | 1009.0 |
| 20260507231527 | 62 | 230 | 5.2 | 13.9 | 0.00 | 0.00 | 0.00 | 30 | 1009.1 |
| 20260507230026 | 62 | 246 | 5.2 | 14.8 | 0.00 | 0.00 | 0.00 | 34 | 1009.1 |
| 20260507224527 | 62 | 287 | 3.5 | 11.3 | 0.00 | 0.00 | 0.00 | 33 | 1009.2 |
| 20260507223024 | 63 | 241 | 7.8 | 12.2 | 0.00 | 0.00 | 0.00 | 34 | 1009.3 |
| 20260507221523 | 63 | 252 | 7.8 | 15.6 | 0.00 | 0.00 | 0.00 | 34 | 1009.2 |
| 20260507220021 | 62 | 257 | 3.5 | 8.7 | 0.00 | 0.00 | 0.00 | 35 | 1009.4 |
| 20260507214524 | 62 | 238 | 4.3 | 13.9 | 0.00 | 0.00 | 0.00 | 28 | 1009.5 |
| 20260507213020 | 62 | 225 | 1.7 | 7.8 | 0.00 | 0.00 | 0.00 | 28 | 1009.6 |
| 20260507211517 | 62 | 244 | 3.5 | 13.0 | 0.00 | 0.00 | 0.00 | 29 | 1009.5 |
| 20260507210016 | 62 | 265 | 6.1 | 13.9 | 0.00 | 0.00 | 0.00 | 31 | 1009.6 |
| 20260507204514 | 62 | 244 | 8.7 | 14.8 | 0.00 | 0.00 | 0.00 | 30 | 1009.7 |
| 20260507203014 | 61 | 229 | 4.3 | 14.8 | 0.00 | 0.00 | 0.00 | 33 | 1009.9 |
| 20260507201511 | 61 | 233 | 3.5 | 11.3 | 0.00 | 0.00 | 0.00 | 29 | 1010.0 |
| 20260507200011 | 61 | 262 | 7.0 | 20.0 | 0.00 | 0.00 | 0.00 | 33 | 1010.3 |
| 20260507194508 | 61 | 270 | 8.7 | 15.6 | 0.00 | 0.00 | 0.00 | 35 | 1010.4 |
| 20260507193005 | 61 | 246 | 7.8 | 16.5 | 0.00 | 0.00 | 0.00 | 30 | 1010.4 |
| 20260507191506 | 61 | 250 | 2.6 | 8.7 | 0.00 | 0.00 | 0.00 | 31 | 1010.5 |
| 20260507190005 | 61 | 249 | 4.3 | 14.8 | 0.00 | 0.00 | 0.00 | 31 | 1010.7 |
| 20260507184604 | 61 | 346 | 0.0 | 7.0 | 0.00 | 0.00 | 0.00 | 33 | 1010.6 |
| 20260507183100 | 60 | 309 | 4.3 | 7.0 | 0.00 | 0.00 | 0.00 | 38 | 1010.7 |
| 20260507181558 | 61 | 251 | 5.2 | 8.7 | 0.00 | 0.00 | 0.00 | 34 | 1010.8 |
| 20260507180054 | 60 | 318 | 0.9 | 6.1 | 0.00 | 0.00 | 0.00 | 36 | 1010.9 |
| 20260507174601 | 59 | 273 | 0.0 | 7.8 | 0.00 | 0.00 | 0.00 | 34 | 1011.1 |
| 20260507173051 | 60 | 290 | 0.0 | 3.5 | 0.00 | 0.00 | 0.00 | 33 | 1011.3 |
| 20260507171600 | 59 | 280 | 0.0 | 4.3 | 0.00 | 0.00 | 0.00 | 37 | 1011.5 |
| 20260507170050 | 59 | 345 | 0.0 | 0.0 | 0.00 | 0.00 | 0.00 | 35 | 1011.6 |
| 20260507164544 | 58 | 325 | 0.0 | 4.3 | 0.00 | 0.00 | 0.00 | 40 | 1011.7 |
| 20260507163040 | 56 | 325 | 0.0 | 6.1 | 0.00 | 0.00 | 0.00 | 42 | 1011.8 |
| 20260507161538 | 54 | 338 | 0.9 | 7.8 | 0.00 | 0.00 | 0.00 | 45 | 1011.7 |
| 20260507160033 | 53 | 355 | 4.3 | 8.7 | 0.00 | 0.00 | 0.00 | 43 | 1011.8 |
| 20260507154533 | 52 | 13 | 4.3 | 9.6 | 0.00 | 0.00 | 0.00 | 48 | 1011.9 |
| 20260507153027 | 51 | 5 | 5.2 | 10.4 | 0.00 | 0.00 | 0.00 | 47 | 1011.9 |
| 20260507151522 | 50 | 20 | 7.0 | 12.2 | 0.00 | 0.00 | 0.00 | 50 | 1011.8 |
| 20260507150020 | 49 | 10 | 4.3 | 8.7 | 0.00 | 0.00 | 0.00 | 51 | 1011.9 |
| 20260507144517 | 48 | 360 | 5.2 | 8.7 | 0.00 | 0.00 | 0.00 | 54 | 1011.9 |
| 20260507143011 | 47 | 360 | 4.3 | 7.0 | 0.00 | 0.00 | 0.00 | 55 | 1012.0 |
| 20260507141508 | 46 | 348 | 3.5 | 6.1 | 0.00 | 0.00 | 0.00 | 56 | 1012.1 |